Time;durP1;ratioP1;P1;durP2;ratioP2;P2;SDS_P1;SDS_P2;PMS_P1;PMS_P2;Temp;Humidity;BMP_temperature;BMP_pressure;BME280_temperature;BME280_humidity;BME280_pressure;Samples;Min_cycle;Max_cycle;Signal;HPM_P1;HPM_P2
2021/08/28 00:01:09;;;;;;;10.93;5.87;;;;;;;;;;5033295;28;20409;-65
2021/08/28 00:03:35;;;;;;;7.43;5.03;;;;;;;;;;5031963;28;20505;-64
2021/08/28 00:06:01;;;;;;;7.97;4.90;;;;;;;;;;5033306;28;20430;-65
2021/08/28 00:08:27;;;;;;;5.37;4.83;;;;;;;;;;5032487;28;20842;-64
2021/08/28 00:10:53;;;;;;;6.87;4.90;;;;;;;;;;5033633;28;20435;-64
2021/08/28 00:13:19;;;;;;;6.83;4.63;;;;;;;;;;5010698;28;20438;-64
2021/08/28 00:15:45;;;;;;;5.13;4.03;;;;;;;;;;5013905;28;20407;-64
2021/08/28 00:18:11;;;;;;;5.83;4.40;;;;;;;;;;5020304;28;20434;-63
2021/08/28 00:20:37;;;;;;;6.20;4.83;;;;;;;;;;5033195;28;20892;-64
2021/08/28 00:23:04;;;;;;;6.83;5.23;;;;;;;;;;5034680;28;20475;-63
2021/08/28 00:25:30;;;;;;;7.43;5.30;;;;;;;;;;5037193;28;20839;-64
2021/08/28 00:27:57;;;;;;;5.43;4.30;;;;;;;;;;5036524;28;20820;-63
2021/08/28 00:30:23;;;;;;;5.20;4.10;;;;;;;;;;5037396;28;20395;-64
2021/08/28 00:32:49;;;;;;;7.63;4.87;;;;;;;;;;5033292;28;20450;-64
2021/08/28 00:35:15;;;;;;;6.70;5.00;;;;;;;;;;5017468;28;20481;-64
2021/08/28 00:37:41;;;;;;;7.93;4.80;;;;;;;;;;5019255;28;20960;-64
2021/08/28 00:40:07;;;;;;;6.40;3.97;;;;;;;;;;5037280;28;20823;-65
2021/08/28 00:42:33;;;;;;;6.30;4.23;;;;;;;;;;5036263;28;20455;-67
2021/08/28 00:44:59;;;;;;;6.33;4.30;;;;;;;;;;5036818;28;20437;-66
2021/08/28 00:47:28;;;;;;;6.60;4.53;;;;;;;;;;5018134;28;20435;-68
2021/08/28 00:49:54;;;;;;;4.93;4.27;;;;;;;;;;5036691;28;20896;-66
2021/08/28 00:52:20;;;;;;;5.80;4.50;;;;;;;;;;5036692;28;20445;-65
2021/08/28 00:54:47;;;;;;;5.13;4.20;;;;;;;;;;5035771;28;20938;-65
2021/08/28 00:57:13;;;;;;;6.87;3.97;;;;;;;;;;5036612;28;20520;-65
2021/08/28 00:59:40;;;;;;;8.83;5.00;;;;;;;;;;5035832;28;20422;-65
2021/08/28 01:02:06;;;;;;;5.60;3.97;;;;;;;;;;5034358;23;20558;-84
2021/08/28 01:04:38;;;;;;;6.33;5.33;;;;;;;;;;5020251;28;20455;-83
2021/08/28 01:07:04;;;;;;;7.80;4.37;;;;;;;;;;5002865;28;20400;-82
2021/08/28 01:09:33;;;;;;;6.20;3.93;;;;;;;;;;5019961;28;20427;-84
2021/08/28 01:12:02;;;;;;;5.90;4.00;;;;;;;;;;5021132;28;20911;-84
2021/08/28 01:14:29;;;;;;;5.60;4.00;;;;;;;;;;5020131;28;20432;-84
2021/08/28 01:16:59;;;;;;;5.77;4.30;;;;;;;;;;5010376;28;20788;-84
2021/08/28 01:19:31;;;;;;;5.80;4.00;;;;;;;;;;5011224;28;20971;-84
2021/08/28 01:21:57;;;;;;;8.03;4.67;;;;;;;;;;5021353;28;20477;-84
2021/08/28 01:24:23;;;;;;;5.60;4.40;;;;;;;;;;5019626;28;20496;-84
2021/08/28 01:26:54;;;;;;;6.83;3.97;;;;;;;;;;5021103;28;20911;-83
2021/08/28 01:29:21;;;;;;;4.70;3.90;;;;;;;;;;5019700;28;20438;-84
2021/08/28 01:31:49;;;;;;;5.53;4.23;;;;;;;;;;5020670;28;20851;-84
2021/08/28 01:34:16;;;;;;;7.37;4.47;;;;;;;;;;5019265;28;20818;-84
2021/08/28 01:36:43;;;;;;;5.37;4.20;;;;;;;;;;5020213;28;20458;-83
2021/08/28 01:39:10;;;;;;;6.17;4.40;;;;;;;;;;5018374;28;20910;-83
2021/08/28 01:41:37;;;;;;;8.50;4.90;;;;;;;;;;5019925;28;20462;-82
2021/08/28 01:44:03;;;;;;;6.13;4.17;;;;;;;;;;5017131;28;20920;-82
2021/08/28 01:46:30;;;;;;;5.57;4.13;;;;;;;;;;5019804;28;20448;-83
2021/08/28 01:48:57;;;;;;;5.93;4.10;;;;;;;;;;5017764;28;20562;-81
2021/08/28 01:51:23;;;;;;;6.30;5.10;;;;;;;;;;5019275;28;20431;-82
2021/08/28 01:53:49;;;;;;;9.90;5.57;;;;;;;;;;4995181;28;20436;-81
2021/08/28 01:56:15;;;;;;;7.67;5.10;;;;;;;;;;4999731;28;20451;-84
2021/08/28 01:58:41;;;;;;;9.83;6.00;;;;;;;;;;4999163;28;20429;-83
2021/08/28 02:01:07;;;;;;;7.73;5.43;;;;;;;;;;5018960;28;20842;-83
2021/08/28 02:03:33;;;;;;;7.90;5.93;;;;;;;;;;5016907;28;21037;-83
2021/08/28 02:06:04;;;;;;;8.50;5.63;;;;;;;;;;5018389;28;20412;-83
2021/08/28 02:08:38;;;;;;;7.97;5.70;;;;;;;;;;5017444;28;20430;-81
2021/08/28 02:11:08;;;;;;;11.90;5.20;;;;;;;;;;4998263;28;20393;-82
2021/08/28 02:13:39;;;;;;;9.27;6.97;;;;;;;;;;4998812;28;20413;-82
2021/08/28 02:16:08;;;;;;;5.87;4.80;;;;;;;;;;5018717;28;20757;-83
2021/08/28 02:18:49;;;;;;;10.87;6.47;;;;;;;;;;5017319;28;20962;-83
2021/08/28 02:21:16;;;;;;;8.90;6.10;;;;;;;;;;4997811;28;20420;-83
2021/08/28 02:23:51;;;;;;;9.73;6.83;;;;;;;;;;4998464;28;20485;-81
2021/08/28 02:26:25;;;;;;;9.17;6.63;;;;;;;;;;5019150;28;20519;-83
2021/08/28 02:29:01;;;;;;;13.37;7.50;;;;;;;;;;5015123;28;20478;-83
2021/08/28 02:31:31;;;;;;;10.60;6.67;;;;;;;;;;5016516;28;20438;-84
2021/08/28 02:33:57;;;;;;;11.30;6.47;;;;;;;;;;5016102;28;20428;-83
2021/08/28 02:36:23;;;;;;;11.27;7.67;;;;;;;;;;5016814;28;20503;-83
2021/08/28 02:38:50;;;;;;;12.03;7.30;;;;;;;;;;5017062;28;20459;-84
2021/08/28 02:41:17;;;;;;;11.47;6.70;;;;;;;;;;5018242;28;20964;-83
2021/08/28 02:43:45;;;;;;;13.13;8.27;;;;;;;;;;4999643;28;20451;-83
2021/08/28 02:46:11;;;;;;;10.20;6.73;;;;;;;;;;5001133;28;20412;-84
2021/08/28 02:48:38;;;;;;;12.30;7.83;;;;;;;;;;5011345;28;20451;-84
2021/08/28 02:51:06;;;;;;;8.73;6.87;;;;;;;;;;5005101;28;20516;-82
2021/08/28 02:53:33;;;;;;;11.30;7.53;;;;;;;;;;5012270;28;20442;-84
2021/08/28 02:55:59;;;;;;;11.63;6.77;;;;;;;;;;5008979;28;20429;-84
2021/08/28 02:58:26;;;;;;;12.83;6.20;;;;;;;;;;4982830;28;20511;-84
2021/08/28 03:00:52;;;;;;;8.07;6.00;;;;;;;;;;5014201;28;20458;-84
2021/08/28 03:03:19;;;;;;;8.90;5.80;;;;;;;;;;5020307;28;20451;-84
2021/08/28 03:05:48;;;;;;;9.67;6.90;;;;;;;;;;5016774;28;20988;-84
2021/08/28 03:08:15;;;;;;;8.73;5.00;;;;;;;;;;5019134;28;20428;-84
2021/08/28 03:10:45;;;;;;;7.97;6.33;;;;;;;;;;5018069;28;20890;-84
2021/08/28 03:13:11;;;;;;;7.60;6.00;;;;;;;;;;5019308;28;20420;-84
2021/08/28 03:15:37;;;;;;;7.43;5.60;;;;;;;;;;5004700;28;20436;-84
2021/08/28 03:18:06;;;;;;;9.03;5.00;;;;;;;;;;4999887;28;20483;-84
2021/08/28 03:20:33;;;;;;;9.63;5.47;;;;;;;;;;5012562;28;20916;-84
2021/08/28 03:23:00;;;;;;;11.50;5.33;;;;;;;;;;5019156;28;20959;-84
2021/08/28 03:25:27;;;;;;;6.90;4.80;;;;;;;;;;4997302;28;21009;-84
2021/08/28 03:27:53;;;;;;;7.50;5.13;;;;;;;;;;4998069;28;20502;-84
2021/08/28 03:30:20;;;;;;;6.10;5.13;;;;;;;;;;4993272;28;20477;-83
2021/08/28 03:32:47;;;;;;;6.70;5.47;;;;;;;;;;5016393;28;20443;-83
2021/08/28 03:35:13;;;;;;;6.63;4.90;;;;;;;;;;5017139;28;20471;-84
2021/08/28 03:37:40;;;;;;;6.60;5.17;;;;;;;;;;5018344;28;20430;-83
2021/08/28 03:40:08;;;;;;;7.17;5.40;;;;;;;;;;5008999;28;20434;-83
2021/08/28 03:42:34;;;;;;;8.77;6.13;;;;;;;;;;4998596;28;20468;-80
2021/08/28 03:45:04;;;;;;;7.73;4.70;;;;;;;;;;5002337;28;20595;-83
2021/08/28 03:47:30;;;;;;;8.13;5.43;;;;;;;;;;5019357;28;20438;-83
2021/08/28 03:49:56;;;;;;;7.53;5.00;;;;;;;;;;5018223;28;20431;-83
2021/08/28 03:52:22;;;;;;;7.40;5.57;;;;;;;;;;5019539;28;20412;-82
2021/08/28 03:54:48;;;;;;;8.13;6.10;;;;;;;;;;5018313;28;20801;-80
2021/08/28 03:57:14;;;;;;;8.00;5.80;;;;;;;;;;5018127;28;20431;-81
2021/08/28 03:59:40;;;;;;;7.80;5.23;;;;;;;;;;4996823;28;20432;-84
2021/08/28 04:02:06;;;;;;;11.10;4.87;;;;;;;;;;4999218;28;20475;-84
2021/08/28 04:04:32;;;;;;;8.47;5.23;;;;;;;;;;4999250;28;20431;-83
2021/08/28 04:06:58;;;;;;;7.73;5.00;;;;;;;;;;5001603;28;20461;-84
2021/08/28 04:09:24;;;;;;;9.43;6.03;;;;;;;;;;5016571;28;20907;-83
2021/08/28 04:11:50;;;;;;;8.73;5.13;;;;;;;;;;4999964;28;20494;-84
2021/08/28 04:14:16;;;;;;;9.77;5.80;;;;;;;;;;5016698;28;20404;-84
2021/08/28 04:16:42;;;;;;;7.60;5.90;;;;;;;;;;5001211;28;20407;-84
2021/08/28 04:19:08;;;;;;;8.23;6.17;;;;;;;;;;5018662;28;20431;-82
2021/08/28 04:21:35;;;;;;;9.30;5.67;;;;;;;;;;5017249;28;20423;-84
2021/08/28 04:24:01;;;;;;;8.03;5.53;;;;;;;;;;4999811;28;20400;-85
2021/08/28 04:26:27;;;;;;;8.80;5.50;;;;;;;;;;5015890;28;20443;-85
2021/08/28 04:28:56;;;;;;;7.57;4.87;;;;;;;;;;5016776;28;20478;-85
2021/08/28 04:31:23;;;;;;;6.93;5.13;;;;;;;;;;4998511;28;20435;-85
2021/08/28 04:33:50;;;;;;;10.50;6.00;;;;;;;;;;5016109;28;20404;-85
2021/08/28 04:36:16;;;;;;;8.83;5.77;;;;;;;;;;4998459;28;20790;-84
2021/08/28 04:38:42;;;;;;;7.80;5.03;;;;;;;;;;5027150;28;20483;-82
2021/08/28 04:41:08;;;;;;;7.20;5.10;;;;;;;;;;5021995;28;20439;-84
2021/08/28 04:43:34;;;;;;;7.67;5.43;;;;;;;;;;5016509;28;20499;-85
2021/08/28 04:46:00;;;;;;;6.57;5.13;;;;;;;;;;5017155;28;20427;-84
2021/08/28 04:48:27;;;;;;;9.47;6.40;;;;;;;;;;5017046;28;20447;-84
2021/08/28 04:50:54;;;;;;;8.50;5.90;;;;;;;;;;4998123;28;21051;-84
2021/08/28 04:53:20;;;;;;;9.70;6.17;;;;;;;;;;5017383;28;20438;-85
2021/08/28 04:55:46;;;;;;;8.80;6.00;;;;;;;;;;5015521;28;20438;-85
2021/08/28 04:58:12;;;;;;;9.00;6.93;;;;;;;;;;4998843;28;20431;-85
2021/08/28 05:00:38;;;;;;;10.10;6.57;;;;;;;;;;5016392;28;20832;-85
2021/08/28 05:03:04;;;;;;;7.73;5.93;;;;;;;;;;5016815;28;20530;-85
2021/08/28 05:05:30;;;;;;;13.53;6.97;;;;;;;;;;5015233;28;20395;-85
2021/08/28 05:07:56;;;;;;;10.40;7.37;;;;;;;;;;5032689;23;20905;-66
2021/08/28 05:10:23;;;;;;;8.50;6.40;;;;;;;;;;5013073;28;20546;-66
2021/08/28 05:12:49;;;;;;;11.23;7.00;;;;;;;;;;4996610;28;20433;-66
2021/08/28 05:15:15;;;;;;;13.60;7.10;;;;;;;;;;4996252;28;20487;-66
2021/08/28 05:17:41;;;;;;;11.17;6.93;;;;;;;;;;5034899;28;20430;-66
2021/08/28 05:20:08;;;;;;;9.17;6.53;;;;;;;;;;5036727;28;20397;-66
2021/08/28 05:22:34;;;;;;;8.53;6.77;;;;;;;;;;5032061;28;20494;-66
2021/08/28 05:25:00;;;;;;;13.23;7.40;;;;;;;;;;5035993;28;20407;-66
2021/08/28 05:27:26;;;;;;;14.53;7.73;;;;;;;;;;5033744;28;20446;-66
2021/08/28 05:29:52;;;;;;;11.57;8.53;;;;;;;;;;5035766;28;20406;-66
2021/08/28 05:32:18;;;;;;;11.20;8.80;;;;;;;;;;5028762;28;20462;-66
2021/08/28 05:34:44;;;;;;;15.27;7.57;;;;;;;;;;5016012;28;20415;-66
2021/08/28 05:37:10;;;;;;;13.10;7.80;;;;;;;;;;5026336;28;20442;-66
2021/08/28 05:39:36;;;;;;;13.23;7.87;;;;;;;;;;5014255;28;20853;-65
2021/08/28 05:42:02;;;;;;;13.40;8.00;;;;;;;;;;5015135;28;20487;-65
2021/08/28 05:44:28;;;;;;;11.93;8.33;;;;;;;;;;5015144;28;20502;-65
2021/08/28 05:46:54;;;;;;;11.00;7.57;;;;;;;;;;5012293;28;20811;-65
2021/08/28 05:49:20;;;;;;;11.33;7.40;;;;;;;;;;5015411;28;20431;-67
2021/08/28 05:51:46;;;;;;;9.00;6.90;;;;;;;;;;5013515;28;20913;-68
2021/08/28 05:54:12;;;;;;;12.20;7.20;;;;;;;;;;5015815;28;20416;-68
2021/08/28 05:56:38;;;;;;;10.80;8.20;;;;;;;;;;5003839;28;20458;-68
2021/08/28 05:59:04;;;;;;;9.47;7.20;;;;;;;;;;5014467;28;20469;-67
2021/08/28 06:01:31;;;;;;;9.97;7.60;;;;;;;;;;5018357;28;20427;-67
2021/08/28 06:03:57;;;;;;;12.23;7.77;;;;;;;;;;5015280;28;20411;-67
2021/08/28 06:06:23;;;;;;;11.50;7.60;;;;;;;;;;5013344;28;20466;-66
2021/08/28 06:08:49;;;;;;;12.37;8.20;;;;;;;;;;5015339;28;20987;-68
2021/08/28 06:11:15;;;;;;;9.70;6.10;;;;;;;;;;5014774;28;20396;-69
2021/08/28 06:13:41;;;;;;;12.37;6.43;;;;;;;;;;5035055;28;20410;-70
2021/08/28 06:16:07;;;;;;;9.30;6.23;;;;;;;;;;5027884;28;20449;-69
2021/08/28 06:18:33;;;;;;;8.13;5.40;;;;;;;;;;5033617;28;20429;-68
2021/08/28 06:21:01;;;;;;;7.90;4.83;;;;;;;;;;5019200;28;20420;-68
2021/08/28 06:23:27;;;;;;;7.00;4.57;;;;;;;;;;5032430;28;20461;-68
2021/08/28 06:25:53;;;;;;;9.10;5.20;;;;;;;;;;5017412;28;20458;-69
2021/08/28 06:28:19;;;;;;;7.13;5.30;;;;;;;;;;5013630;28;20428;-68
2021/08/28 06:30:45;;;;;;;6.63;4.13;;;;;;;;;;5014729;28;20416;-69
2021/08/28 06:33:11;;;;;;;8.07;4.17;;;;;;;;;;5017550;28;20435;-68
2021/08/28 06:35:37;;;;;;;6.43;4.90;;;;;;;;;;4996902;28;20869;-68
2021/08/28 06:38:03;;;;;;;5.03;3.60;;;;;;;;;;4996154;28;20439;-66
2021/08/28 06:40:29;;;;;;;6.27;4.10;;;;;;;;;;5014641;28;20419;-66
2021/08/28 06:42:55;;;;;;;5.83;3.00;;;;;;;;;;5026337;28;20839;-66
2021/08/28 06:45:21;;;;;;;4.33;3.43;;;;;;;;;;5028211;28;20416;-67
2021/08/28 06:47:47;;;;;;;4.07;3.07;;;;;;;;;;5014497;28;20444;-68
2021/08/28 06:50:13;;;;;;;2.87;2.60;;;;;;;;;;5014930;28;20412;-68
2021/08/28 06:52:39;;;;;;;3.43;2.80;;;;;;;;;;5020508;28;20515;-69
2021/08/28 06:55:06;;;;;;;3.20;2.40;;;;;;;;;;5014929;28;20423;-70
2021/08/28 06:57:32;;;;;;;4.60;3.17;;;;;;;;;;5003334;28;20447;-67
2021/08/28 06:59:59;;;;;;;3.23;2.80;;;;;;;;;;5013854;28;20881;-69
2021/08/28 07:02:25;;;;;;;3.60;2.70;;;;;;;;;;5015494;28;20835;-68
2021/08/28 07:04:51;;;;;;;4.13;3.00;;;;;;;;;;5000666;28;20405;-69
2021/08/28 07:07:17;;;;;;;3.30;2.70;;;;;;;;;;5012393;28;20442;-68
2021/08/28 07:09:43;;;;;;;4.93;2.40;;;;;;;;;;5034157;28;20418;-67
2021/08/28 07:12:09;;;;;;;2.87;2.23;;;;;;;;;;5032204;28;20535;-67
2021/08/28 07:14:35;;;;;;;3.07;2.77;;;;;;;;;;5016877;28;20554;-68
2021/08/28 07:17:01;;;;;;;2.50;2.20;;;;;;;;;;5016929;28;20504;-67
2021/08/28 07:19:27;;;;;;;3.33;2.27;;;;;;;;;;5017984;28;20832;-67
2021/08/28 07:21:53;;;;;;;4.00;2.37;;;;;;;;;;5015957;28;20470;-66
2021/08/28 07:24:19;;;;;;;4.27;2.07;;;;;;;;;;5032133;28;20399;-68
2021/08/28 07:26:45;;;;;;;3.50;2.60;;;;;;;;;;5014458;28;20944;-67
2021/08/28 07:29:11;;;;;;;3.60;2.30;;;;;;;;;;5004753;28;20411;-65
2021/08/28 07:31:37;;;;;;;3.47;2.17;;;;;;;;;;5011746;28;20506;-66
2021/08/28 07:34:03;;;;;;;3.70;2.10;;;;;;;;;;5020194;28;20400;-66
2021/08/28 07:36:29;;;;;;;2.47;2.07;;;;;;;;;;5013947;28;20415;-66
2021/08/28 07:38:55;;;;;;;3.17;2.10;;;;;;;;;;5031648;28;20429;-65
2021/08/28 07:41:21;;;;;;;5.40;2.37;;;;;;;;;;5033598;28;20474;-67
2021/08/28 07:43:47;;;;;;;5.30;2.10;;;;;;;;;;5026620;28;20833;-66
2021/08/28 07:46:14;;;;;;;4.87;2.40;;;;;;;;;;4993074;28;20448;-66
2021/08/28 07:48:40;;;;;;;3.77;2.00;;;;;;;;;;5011522;28;20423;-67
2021/08/28 07:51:06;;;;;;;3.57;2.27;;;;;;;;;;5010533;28;20408;-67
2021/08/28 07:53:32;;;;;;;2.97;2.60;;;;;;;;;;5018001;28;20499;-65
2021/08/28 07:55:58;;;;;;;2.47;2.20;;;;;;;;;;4995120;28;20982;-66
2021/08/28 07:58:25;;;;;;;4.00;2.23;;;;;;;;;;5010700;28;20435;-66
2021/08/28 08:00:51;;;;;;;4.30;2.53;;;;;;;;;;5012490;28;20411;-67
2021/08/28 08:03:17;;;;;;;5.80;3.13;;;;;;;;;;5025089;28;20866;-65
2021/08/28 08:05:44;;;;;;;3.47;2.80;;;;;;;;;;5015972;28;20411;-66
2021/08/28 08:08:10;;;;;;;3.07;2.43;;;;;;;;;;5011726;28;20463;-65
2021/08/28 08:10:36;;;;;;;3.93;2.47;;;;;;;;;;5012540;28;20900;-67
2021/08/28 08:13:02;;;;;;;2.93;2.30;;;;;;;;;;5021804;28;20592;-68
2021/08/28 08:15:29;;;;;;;3.40;2.53;;;;;;;;;;5016515;28;20451;-68
2021/08/28 08:17:55;;;;;;;4.83;2.17;;;;;;;;;;5003029;28;20526;-68
2021/08/28 08:20:21;;;;;;;4.43;2.60;;;;;;;;;;4993824;28;20480;-68
2021/08/28 08:22:47;;;;;;;3.07;1.90;;;;;;;;;;5009100;28;20462;-68
2021/08/28 08:25:13;;;;;;;2.97;2.60;;;;;;;;;;5033278;28;20407;-68
2021/08/28 08:27:39;;;;;;;2.20;1.90;;;;;;;;;;5031147;28;20449;-68
2021/08/28 08:30:06;;;;;;;2.90;2.30;;;;;;;;;;5033191;28;20770;-68
2021/08/28 08:32:33;;;;;;;3.67;2.07;;;;;;;;;;5021359;28;20803;-67
2021/08/28 08:34:59;;;;;;;5.50;2.10;;;;;;;;;;4993658;28;20408;-68
2021/08/28 08:37:25;;;;;;;2.77;2.00;;;;;;;;;;5010784;28;20465;-68
2021/08/28 08:39:51;;;;;;;3.67;2.07;;;;;;;;;;5033000;28;20898;-68
2021/08/28 08:42:18;;;;;;;3.43;2.40;;;;;;;;;;5031991;28;20455;-68
2021/08/28 08:44:47;;;;;;;3.70;2.87;;;;;;;;;;5037173;28;20409;-68
2021/08/28 08:47:14;;;;;;;2.73;2.43;;;;;;;;;;5035125;28;20455;-68
2021/08/28 08:49:41;;;;;;;4.60;2.77;;;;;;;;;;5037067;28;20537;-68
2021/08/28 08:52:08;;;;;;;3.90;3.20;;;;;;;;;;5034662;28;20434;-68
2021/08/28 08:54:35;;;;;;;3.47;3.13;;;;;;;;;;5036701;28;20481;-68
2021/08/28 08:57:01;;;;;;;3.20;2.57;;;;;;;;;;5017002;28;20916;-68
2021/08/28 08:59:27;;;;;;;3.53;2.57;;;;;;;;;;5016809;28;20403;-68
2021/08/28 09:01:53;;;;;;;2.50;2.10;;;;;;;;;;4999232;28;21002;-68
2021/08/28 09:04:19;;;;;;;3.63;2.27;;;;;;;;;;5034263;28;20430;-68
2021/08/28 09:06:46;;;;;;;3.47;2.07;;;;;;;;;;5036627;28;20480;-68
2021/08/28 09:09:13;;;;;;;3.47;2.40;;;;;;;;;;5034415;28;20450;-68
2021/08/28 09:11:56;;;;;;;3.83;2.30;;;;;;;;;;5001866;28;20428;-68
2021/08/28 09:14:22;;;;;;;4.40;3.27;;;;;;;;;;5033897;28;20426;-68
2021/08/28 09:16:50;;;;;;;4.60;2.93;;;;;;;;;;5036268;28;20433;-68
2021/08/28 09:19:16;;;;;;;3.90;2.80;;;;;;;;;;5034349;28;20437;-68
2021/08/28 09:21:43;;;;;;;3.40;2.50;;;;;;;;;;5036350;28;20418;-68
2021/08/28 09:24:11;;;;;;;3.17;2.40;;;;;;;;;;5034186;28;20525;-68
2021/08/28 09:26:41;;;;;;;2.93;2.17;;;;;;;;;;5036096;28;20961;-68
2021/08/28 09:29:08;;;;;;;2.67;2.03;;;;;;;;;;5034098;28;20442;-68
2021/08/28 09:31:45;;;;;;;3.30;2.53;;;;;;;;;;5036015;28;20941;-68
2021/08/28 09:34:28;;;;;;;3.67;2.57;;;;;;;;;;5034277;28;20483;-68
2021/08/28 09:36:54;;;;;;;3.33;2.63;;;;;;;;;;5035836;28;20426;-68
2021/08/28 09:39:20;;;;;;;3.50;2.13;;;;;;;;;;5016963;28;20427;-68
2021/08/28 09:41:53;;;;;;;3.40;2.10;;;;;;;;;;5016240;28;20416;-68
2021/08/28 09:44:22;;;;;;;4.07;2.10;;;;;;;;;;5012658;28;20431;-68
2021/08/28 09:46:49;;;;;;;3.60;2.13;;;;;;;;;;5015944;28;20430;-68
2021/08/28 09:49:22;;;;;;;2.27;1.70;;;;;;;;;;5015492;28;20424;-68
2021/08/28 09:51:48;;;;;;;4.47;2.20;;;;;;;;;;5016318;28;20868;-68
2021/08/28 09:54:14;;;;;;;2.40;1.80;;;;;;;;;;5013630;28;20509;-68
2021/08/28 09:56:43;;;;;;;2.77;1.90;;;;;;;;;;5015869;28;20419;-68
2021/08/28 09:59:21;;;;;;;4.10;2.23;;;;;;;;;;5003213;28;20443;-67
2021/08/28 10:01:48;;;;;;;2.67;1.90;;;;;;;;;;4995943;28;20417;-68
2021/08/28 10:04:14;;;;;;;2.53;1.90;;;;;;;;;;5026808;28;20837;-67
2021/08/28 10:06:49;;;;;;;3.63;1.70;;;;;;;;;;5033436;28;20865;-67
2021/08/28 10:09:17;;;;;;;2.87;1.90;;;;;;;;;;5033449;28;20442;-68
2021/08/28 10:11:50;;;;;;;2.23;1.77;;;;;;;;;;5035551;28;20811;-68
2021/08/28 10:14:17;;;;;;;2.43;1.80;;;;;;;;;;5033258;28;20427;-67
2021/08/28 10:16:47;;;;;;;2.60;1.83;;;;;;;;;;5035400;28;20544;-68
2021/08/28 10:19:17;;;;;;;2.37;1.67;;;;;;;;;;5033550;28;20429;-68
2021/08/28 10:21:46;;;;;;;3.20;1.73;;;;;;;;;;5035196;28;20490;-68
2021/08/28 10:24:16;;;;;;;1.90;1.40;;;;;;;;;;5033223;28;20472;-68
2021/08/28 10:26:43;;;;;;;4.37;1.90;;;;;;;;;;5035018;28;20419;-65
2021/08/28 10:29:13;;;;;;;2.00;1.30;;;;;;;;;;5033174;28;20820;-66
2021/08/28 10:31:40;;;;;;;3.40;3.00;;;;;;;;;;5035120;28;20403;-66
2021/08/28 10:34:06;;;;;;;3.43;2.10;;;;;;;;;;5032983;28;20928;-66
2021/08/28 10:36:33;;;;;;;1.97;1.53;;;;;;;;;;5034768;28;20419;-66
2021/08/28 10:38:59;;;;;;;3.00;1.93;;;;;;;;;;5031395;28;20778;-66
2021/08/28 10:41:25;;;;;;;1.80;1.40;;;;;;;;;;5034705;28;20473;-66
2021/08/28 10:43:51;;;;;;;2.50;1.40;;;;;;;;;;5015182;28;20473;-66
2021/08/28 10:46:18;;;;;;;2.03;1.33;;;;;;;;;;5034593;28;20561;-66
2021/08/28 10:48:52;;;;;;;2.33;1.00;;;;;;;;;;5032636;28;20423;-66
2021/08/28 10:51:25;;;;;;;3.60;1.40;;;;;;;;;;5034598;28;20407;-66
2021/08/28 10:53:55;;;;;;;2.23;1.57;;;;;;;;;;5032831;28;20446;-66
2021/08/28 10:56:34;;;;;;;1.93;1.13;;;;;;;;;;5034443;28;20441;-66
2021/08/28 10:59:21;;;;;;;1.70;1.20;;;;;;;;;;5032662;28;20801;-66
2021/08/28 11:01:50;;;;;;;1.63;1.00;;;;;;;;;;5014408;28;20427;-66
2021/08/28 11:04:35;;;;;;;3.20;1.30;;;;;;;;;;5026650;28;20438;-66
2021/08/28 11:07:19;;;;;;;1.50;0.80;;;;;;;;;;5034034;28;20779;-66
2021/08/28 11:10:04;;;;;;;1.70;0.80;;;;;;;;;;5018435;28;20440;-66
2021/08/28 11:12:41;;;;;;;1.60;1.00;;;;;;;;;;4994545;28;20429;-66
2021/08/28 11:15:27;;;;;;;1.60;1.00;;;;;;;;;;5010899;28;20430;-66
2021/08/28 11:17:53;;;;;;;1.60;1.03;;;;;;;;;;5014110;28;20438;-66
2021/08/28 11:20:23;;;;;;;2.17;1.20;;;;;;;;;;5016191;28;20411;-66
2021/08/28 11:22:49;;;;;;;1.50;0.83;;;;;;;;;;5013541;28;20447;-67
2021/08/28 11:25:15;;;;;;;1.50;0.83;;;;;;;;;;5014293;28;20805;-68
2021/08/28 11:27:43;;;;;;;1.80;0.90;;;;;;;;;;5013273;28;20440;-68
2021/08/28 11:30:09;;;;;;;1.73;0.83;;;;;;;;;;5033334;28;20410;-67
2021/08/28 11:32:36;;;;;;;1.73;1.10;;;;;;;;;;5016059;28;20426;-68
2021/08/28 11:35:03;;;;;;;2.17;1.00;;;;;;;;;;5011426;28;20429;-65
2021/08/28 11:37:29;;;;;;;1.90;1.10;;;;;;;;;;5012257;28;20450;-66
2021/08/28 11:39:55;;;;;;;1.30;0.77;;;;;;;;;;5012771;28;20435;-66
2021/08/28 11:42:22;;;;;;;1.70;1.00;;;;;;;;;;5011721;28;20991;-66
2021/08/28 11:44:48;;;;;;;1.80;0.97;;;;;;;;;;4996425;28;20428;-66
2021/08/28 11:47:14;;;;;;;1.93;1.10;;;;;;;;;;5004331;28;20447;-65
2021/08/28 11:49:40;;;;;;;1.83;1.00;;;;;;;;;;5013972;28;20935;-65
2021/08/28 11:52:07;;;;;;;1.67;1.03;;;;;;;;;;5033827;28;20441;-65
2021/08/28 11:54:33;;;;;;;1.73;1.00;;;;;;;;;;5017959;28;20910;-66
2021/08/28 11:57:00;;;;;;;1.83;1.13;;;;;;;;;;5013661;28;20543;-66
2021/08/28 11:59:34;;;;;;;2.30;1.33;;;;;;;;;;5003434;28;20544;-65
2021/08/28 12:02:00;;;;;;;1.70;1.13;;;;;;;;;;4994540;28;20472;-65
2021/08/28 12:04:26;;;;;;;1.93;1.10;;;;;;;;;;5018148;28;20430;-65
2021/08/28 12:06:53;;;;;;;2.63;1.33;;;;;;;;;;5033137;28;20423;-65
2021/08/28 12:09:23;;;;;;;2.00;0.97;;;;;;;;;;5031303;28;20661;-68
2021/08/28 12:11:50;;;;;;;1.70;1.13;;;;;;;;;;5033051;28;20399;-68
2021/08/28 12:14:16;;;;;;;2.03;1.20;;;;;;;;;;5002872;28;20571;-68
2021/08/28 12:16:43;;;;;;;4.10;1.80;;;;;;;;;;4993103;28;20932;-68
2021/08/28 12:19:09;;;;;;;2.20;1.70;;;;;;;;;;5002848;28;20455;-68
2021/08/28 12:21:36;;;;;;;2.63;1.20;;;;;;;;;;5025461;28;20520;-65
2021/08/28 12:24:32;;;;;;;2.07;1.13;;;;;;;;;;5015551;28;20445;-66
2021/08/28 12:26:59;;;;;;;2.07;1.30;;;;;;;;;;4985351;28;20784;-66
2021/08/28 12:29:25;;;;;;;2.00;1.23;;;;;;;;;;5015378;28;20435;-66
2021/08/28 12:31:54;;;;;;;1.67;1.10;;;;;;;;;;5033331;28;20490;-65
2021/08/28 12:34:21;;;;;;;1.80;0.97;;;;;;;;;;5031130;28;20971;-66
2021/08/28 12:36:48;;;;;;;2.83;0.97;;;;;;;;;;5015283;28;20441;-66
2021/08/28 12:39:14;;;;;;;1.93;1.20;;;;;;;;;;5013109;28;20455;-65
2021/08/28 12:41:40;;;;;;;1.50;1.00;;;;;;;;;;4993733;28;20495;-66
2021/08/28 12:44:07;;;;;;;1.90;1.00;;;;;;;;;;5001499;28;20431;-66
2021/08/28 12:46:34;;;;;;;2.53;1.27;;;;;;;;;;5013449;28;20455;-66
2021/08/28 12:49:07;;;;;;;2.00;1.10;;;;;;;;;;5017641;28;20437;-68
2021/08/28 12:51:33;;;;;;;1.40;0.80;;;;;;;;;;4993966;28;20408;-65
2021/08/28 12:53:59;;;;;;;3.43;1.30;;;;;;;;;;4993717;28;20427;-66
2021/08/28 12:56:25;;;;;;;1.60;0.87;;;;;;;;;;4993583;28;20434;-66
2021/08/28 12:58:51;;;;;;;1.50;0.90;;;;;;;;;;5003629;28;20425;-66
2021/08/28 13:01:17;;;;;;;1.80;1.00;;;;;;;;;;5032786;28;20402;-66
2021/08/28 13:03:49;;;;;;;1.73;0.93;;;;;;;;;;5030716;28;20462;-66
2021/08/28 13:06:22;;;;;;;1.50;0.80;;;;;;;;;;5032619;28;20419;-66
2021/08/28 13:08:48;;;;;;;2.40;1.13;;;;;;;;;;5030806;28;20816;-66
2021/08/28 13:11:18;;;;;;;2.20;1.37;;;;;;;;;;5032945;28;20415;-66
2021/08/28 13:13:51;;;;;;;2.00;1.37;;;;;;;;;;5030669;28;20427;-66
2021/08/28 13:16:18;;;;;;;2.27;1.40;;;;;;;;;;5032767;28;20430;-66
2021/08/28 13:18:44;;;;;;;4.00;1.13;;;;;;;;;;5024035;28;20933;-66
2021/08/28 13:21:10;;;;;;;1.77;1.27;;;;;;;;;;4993159;28;20977;-66
2021/08/28 13:23:36;;;;;;;2.60;1.70;;;;;;;;;;4996834;28;20509;-66
2021/08/28 13:26:03;;;;;;;2.20;1.33;;;;;;;;;;5032434;28;20426;-66
2021/08/28 13:28:31;;;;;;;2.00;1.23;;;;;;;;;;5019744;28;20612;-66
2021/08/28 13:30:58;;;;;;;3.50;1.57;;;;;;;;;;5035876;28;20407;-66
2021/08/28 13:33:27;;;;;;;2.17;1.37;;;;;;;;;;5034379;28;20490;-68
2021/08/28 13:35:55;;;;;;;2.47;1.40;;;;;;;;;;5015052;28;20510;-66
2021/08/28 13:38:22;;;;;;;2.53;1.53;;;;;;;;;;5015394;28;20495;-67
2021/08/28 13:40:49;;;;;;;2.53;1.40;;;;;;;;;;5035478;28;20415;-66
2021/08/28 13:43:15;;;;;;;1.80;1.00;;;;;;;;;;5035866;28;21016;-66
2021/08/28 13:45:41;;;;;;;2.97;1.47;;;;;;;;;;5033960;28;20476;-66
2021/08/28 13:48:07;;;;;;;2.40;1.47;;;;;;;;;;5035985;28;20410;-66
2021/08/28 13:50:33;;;;;;;4.07;1.40;;;;;;;;;;5033603;28;20517;-66
2021/08/28 13:52:59;;;;;;;2.23;1.10;;;;;;;;;;5035613;28;20398;-66
2021/08/28 13:55:25;;;;;;;6.50;1.20;;;;;;;;;;5002409;28;20436;-66
2021/08/28 13:57:51;;;;;;;2.70;1.53;;;;;;;;;;4996036;28;20425;-66
2021/08/28 14:00:17;;;;;;;2.63;1.40;;;;;;;;;;5008733;28;20439;-66
2021/08/28 14:02:44;;;;;;;2.50;1.40;;;;;;;;;;5028607;28;20979;-66
2021/08/28 14:05:11;;;;;;;2.60;1.40;;;;;;;;;;5006993;28;20429;-66
2021/08/28 14:07:38;;;;;;;2.17;1.40;;;;;;;;;;4996038;28;20490;-66
2021/08/28 14:10:05;;;;;;;3.43;1.93;;;;;;;;;;4995940;28;20468;-66
2021/08/28 14:12:31;;;;;;;3.73;1.43;;;;;;;;;;4996127;28;20409;-66
2021/08/28 14:14:57;;;;;;;2.43;1.23;;;;;;;;;;5017731;28;20792;-66
2021/08/28 14:17:24;;;;;;;2.30;1.30;;;;;;;;;;5035129;28;20429;-66
2021/08/28 14:19:50;;;;;;;1.73;1.13;;;;;;;;;;5002619;28;20960;-66
2021/08/28 14:22:16;;;;;;;2.17;1.53;;;;;;;;;;4995647;28;20959;-66
2021/08/28 14:24:43;;;;;;;2.53;1.67;;;;;;;;;;5012295;28;20434;-66
2021/08/28 14:27:10;;;;;;;5.00;1.50;;;;;;;;;;5035177;28;20451;-66
2021/08/28 14:29:36;;;;;;;2.60;1.43;;;;;;;;;;5032934;28;20423;-66
2021/08/28 14:32:02;;;;;;;2.50;1.40;;;;;;;;;;5035169;28;20831;-66
2021/08/28 14:34:29;;;;;;;1.90;1.17;;;;;;;;;;5020775;28;20440;-66
2021/08/28 14:36:56;;;;;;;3.07;1.50;;;;;;;;;;5008270;28;20470;-67
2021/08/28 14:39:23;;;;;;;2.43;1.43;;;;;;;;;;5013388;28;20956;-67
2021/08/28 14:41:49;;;;;;;3.10;1.33;;;;;;;;;;5014601;28;20407;-67